createdAt,value
2022-08-11T00:02:33.312Z,26.60
2022-08-11T00:05:08.157Z,26.50
2022-08-11T00:07:42.368Z,26.50
2022-08-11T00:10:13.495Z,26.40
2022-08-11T00:12:42.783Z,26.40
2022-08-11T00:15:12.837Z,26.40
2022-08-11T00:17:41.797Z,26.30
2022-08-11T00:20:16.590Z,26.30
2022-08-11T00:22:49.394Z,26.20
2022-08-11T00:25:20.379Z,26.20
2022-08-11T00:27:49.845Z,26.20
2022-08-11T00:30:18.808Z,26.30
2022-08-11T00:32:56.407Z,26.30
2022-08-11T00:35:51.366Z,26.30
2022-08-11T00:38:25.650Z,26.30
2022-08-11T00:41:00.499Z,26.30
2022-08-11T00:43:48.460Z,26.30
2022-08-11T00:46:30.430Z,26.30
2022-08-11T00:49:12.291Z,26.30
2022-08-11T00:52:04.028Z,26.20
2022-08-11T00:55:14.947Z,26.20
2022-08-11T00:58:22.590Z,26.10
2022-08-11T01:01:10.607Z,26.10
2022-08-11T01:04:14.224Z,26.10
2022-08-11T01:07:15.533Z,26.00
2022-08-11T01:10:33.323Z,25.90
2022-08-11T01:13:13.533Z,25.90
2022-08-11T01:16:12.954Z,25.90
2022-08-11T01:19:02.225Z,25.80
2022-08-11T01:22:21.294Z,25.70
2022-08-11T01:25:22.492Z,25.70
2022-08-11T01:28:27.535Z,25.60
2022-08-11T01:31:27.535Z,25.50
2022-08-11T01:34:23.042Z,25.40
2022-08-11T01:37:30.335Z,25.30
2022-08-11T01:40:18.381Z,25.40
2022-08-11T01:43:30.032Z,25.20
2022-08-11T01:46:03.713Z,25.20
2022-08-11T01:48:42.021Z,25.20
2022-08-11T01:51:20.895Z,25.20
2022-08-11T01:53:58.431Z,25.20
2022-08-11T01:56:45.640Z,25.20
2022-08-11T01:59:19.505Z,25.20
2022-08-11T02:02:09.868Z,25.20
2022-08-11T02:04:53.422Z,25.20
2022-08-11T02:07:34.112Z,25.10
2022-08-11T02:10:35.285Z,25.10
2022-08-11T02:13:16.329Z,25.10
2022-08-11T02:15:55.957Z,25.10
2022-08-11T02:18:49.906Z,25.10
2022-08-11T02:21:45.793Z,25.10
2022-08-11T02:24:22.044Z,25.10
2022-08-11T02:27:01.226Z,25.20
2022-08-11T02:29:36.564Z,25.20
2022-08-11T02:32:31.330Z,25.20
2022-08-11T02:35:13.096Z,25.20
2022-08-11T02:37:49.840Z,25.20
2022-08-11T02:40:26.016Z,25.20
2022-08-11T02:43:23.952Z,25.10
2022-08-11T02:46:02.316Z,25.20
2022-08-11T02:49:05.465Z,25.20
2022-08-11T02:51:45.590Z,25.20
2022-08-11T02:54:30.757Z,25.20
2022-08-11T02:57:03.347Z,25.10
2022-08-11T02:59:53.578Z,25.10
2022-08-11T03:02:41.192Z,25.20
2022-08-11T03:05:22.678Z,25.20
2022-08-11T03:08:13.469Z,25.20
2022-08-11T03:11:11.388Z,25.10
2022-08-11T03:14:02.835Z,25.10
2022-08-11T03:16:46.628Z,25.00
2022-08-11T03:19:23.152Z,25.00
2022-08-11T03:22:06.423Z,24.90
2022-08-11T03:24:56.831Z,24.70
2022-08-11T03:27:40.747Z,24.50
2022-08-11T03:30:14.639Z,24.40
2022-08-11T03:33:18.979Z,24.30
2022-08-11T03:36:11.151Z,24.30
2022-08-11T03:38:52.597Z,24.40
2022-08-11T03:41:54.726Z,24.40
2022-08-11T03:45:18.641Z,24.30
2022-08-11T03:48:00.763Z,24.30
2022-08-11T03:50:51.882Z,24.40
2022-08-11T03:53:47.136Z,24.40
2022-08-11T03:56:56.112Z,24.30
2022-08-11T04:00:02.235Z,24.30
2022-08-11T04:03:05.960Z,24.30
2022-08-11T04:06:07.260Z,24.40
2022-08-11T04:09:07.715Z,24.40
2022-08-11T04:11:50.533Z,24.30
2022-08-11T04:15:06.996Z,24.20
2022-08-11T04:18:13.862Z,24.10
2022-08-11T04:21:09.092Z,23.90
2022-08-11T04:24:35.359Z,23.80
2022-08-11T04:27:19.249Z,23.70
2022-08-11T04:33:09.442Z,23.50
2022-08-11T04:35:50.186Z,23.40
2022-08-11T04:38:55.122Z,23.40
2022-08-11T04:42:16.943Z,23.30
2022-08-11T04:45:22.478Z,23.30
2022-08-11T04:48:25.416Z,23.30
2022-08-11T04:51:25.723Z,23.30
2022-08-11T04:54:26.374Z,23.30
2022-08-11T04:57:22.223Z,23.30
2022-08-11T05:00:23.912Z,23.30
2022-08-11T05:03:41.776Z,23.40
2022-08-11T05:06:38.594Z,23.40
2022-08-11T05:09:33.184Z,23.40
2022-08-11T05:12:25.883Z,23.50
2022-08-11T05:15:12.419Z,23.50
2022-08-11T05:18:02.740Z,23.60
2022-08-11T05:21:04.840Z,23.60
2022-08-11T05:23:53.996Z,23.60
2022-08-11T05:26:46.108Z,23.70
2022-08-11T05:29:58.033Z,23.70
2022-08-11T05:32:48.645Z,23.60
2022-08-11T05:36:01.372Z,23.60
2022-08-11T05:38:31.343Z,23.50
2022-08-11T05:41:17.719Z,23.50
2022-08-11T05:44:20.474Z,23.60
2022-08-11T05:47:09.463Z,23.70
2022-08-11T05:49:57.862Z,23.80
2022-08-11T05:52:46.974Z,23.90
2022-08-11T05:55:34.635Z,24.00
2022-08-11T05:58:04.911Z,24.10
2022-08-11T06:00:42.246Z,24.20
2022-08-11T06:03:12.232Z,24.30
2022-08-11T06:05:43.932Z,24.30
2022-08-11T06:08:14.080Z,24.40
2022-08-11T06:10:44.139Z,24.50
2022-08-11T06:13:17.325Z,24.50
2022-08-11T06:15:46.960Z,24.60
2022-08-11T06:18:18.142Z,24.70
2022-08-11T06:20:48.692Z,24.80
2022-08-11T06:23:20.552Z,24.90
2022-08-11T06:25:49.734Z,24.90
2022-08-11T06:28:21.089Z,25.00
2022-08-11T06:30:50.744Z,25.10
2022-08-11T06:33:31.652Z,25.20
2022-08-11T06:36:06.788Z,25.30
2022-08-11T06:38:53.846Z,25.40
2022-08-11T06:41:33.564Z,25.50
2022-08-11T06:44:10.333Z,25.60
2022-08-11T06:46:41.149Z,25.70
2022-08-11T06:49:32.285Z,25.80
2022-08-11T06:52:02.833Z,25.90
2022-08-11T06:54:37.308Z,26.10
2022-08-11T06:57:29.721Z,26.10
2022-08-11T07:00:17.623Z,26.30
2022-08-11T07:02:50.444Z,26.40
2022-08-11T07:05:25.273Z,26.50
2022-08-11T07:09:00.043Z,26.60
2022-08-11T07:12:21.290Z,26.80
2022-08-11T07:15:10.401Z,26.90
2022-08-11T07:17:43.931Z,27.10
2022-08-11T07:20:31.721Z,27.20
2022-08-11T07:23:21.909Z,27.20
2022-08-11T07:26:11.200Z,27.30
2022-08-11T07:28:59.176Z,27.40
2022-08-11T07:31:37.186Z,27.50
2022-08-11T07:34:19.050Z,27.60
2022-08-11T07:36:52.483Z,27.70
2022-08-11T07:39:24.220Z,27.80
2022-08-11T07:41:57.133Z,27.90
2022-08-11T07:44:34.311Z,27.90
2022-08-11T07:47:20.782Z,28.00
2022-08-11T07:50:10.393Z,28.10
2022-08-11T07:52:40.687Z,28.20
2022-08-11T07:55:19.701Z,28.30
2022-08-11T07:58:15.954Z,28.30
2022-08-11T08:01:10.754Z,28.40
2022-08-11T08:04:08.149Z,28.50
2022-08-11T08:06:54.973Z,28.60
2022-08-11T08:09:41.569Z,28.70
2022-08-11T08:12:30.825Z,28.80
2022-08-11T08:15:16.842Z,28.90
2022-08-11T08:18:20.538Z,29.00
2022-08-11T08:20:47.807Z,29.10
2022-08-11T08:23:17.133Z,29.20
2022-08-11T08:25:46.832Z,29.30
2022-08-11T08:28:18.587Z,29.30
2022-08-11T08:30:50.671Z,29.40
2022-08-11T08:33:21.903Z,29.50
2022-08-11T08:36:11.220Z,29.60
2022-08-11T08:38:42.364Z,29.60
2022-08-11T08:41:13.228Z,29.60
2022-08-11T08:43:50.410Z,29.70
2022-08-11T08:46:26.731Z,29.80
2022-08-11T08:48:56.143Z,29.80
2022-08-11T08:51:58.708Z,29.90
2022-08-11T08:54:30.253Z,30.00
2022-08-11T08:56:59.091Z,30.20
2022-08-11T08:59:47.698Z,30.30
2022-08-11T09:02:22.103Z,30.40
2022-08-11T09:05:05.357Z,30.50
2022-08-11T09:07:39.141Z,30.70
2022-08-11T09:10:10.796Z,30.80
2022-08-11T09:12:42.345Z,30.80
2022-08-11T09:15:14.939Z,31.00
2022-08-11T09:17:49.236Z,31.10
2022-08-11T09:20:20.638Z,31.30
2022-08-11T09:24:06.463Z,31.30
2022-08-11T09:26:16.217Z,31.50
2022-08-11T09:28:45.423Z,31.60
2022-08-11T09:31:16.444Z,31.60
2022-08-11T09:33:46.029Z,31.70
2022-08-11T09:36:31.978Z,31.80
2022-08-11T09:39:21.508Z,31.90
2022-08-11T09:42:01.363Z,32.10
2022-08-11T09:44:48.779Z,32.20
2022-08-11T09:47:27.238Z,32.40
2022-08-11T09:50:00.167Z,32.60
2022-08-11T09:52:30.765Z,32.70
2022-08-11T09:54:59.974Z,32.90
2022-08-11T09:57:46.307Z,33.00
2022-08-11T10:00:16.037Z,33.10
2022-08-11T10:02:47.561Z,33.30
2022-08-11T10:05:37.141Z,33.40
2022-08-11T10:08:07.019Z,33.60
2022-08-11T10:10:38.675Z,33.60
2022-08-11T10:14:12.435Z,33.70
2022-08-11T10:16:00.186Z,33.90
2022-08-11T10:18:53.620Z,34.20
2022-08-11T10:21:37.658Z,34.40
2022-08-11T10:24:25.257Z,34.60
2022-08-11T10:27:00.226Z,34.80
2022-08-11T10:29:49.899Z,35.00
2022-08-11T10:32:59.297Z,35.10
2022-08-11T10:35:31.681Z,35.30
2022-08-11T10:38:06.066Z,35.50
2022-08-11T10:40:39.992Z,35.80
2022-08-11T10:43:13.365Z,36.00
2022-08-11T10:46:01.405Z,36.30
2022-08-11T10:48:30.600Z,36.40
2022-08-11T10:51:15.707Z,36.60
2022-08-11T10:54:21.562Z,36.90
2022-08-11T10:57:07.558Z,37.00
2022-08-11T10:59:36.065Z,37.20
2022-08-11T11:02:04.649Z,37.30
2022-08-11T11:07:19.834Z,37.70
2022-08-11T11:09:51.696Z,37.90
2022-08-11T11:12:45.803Z,38.10
2022-08-11T11:15:32.967Z,38.20
2022-08-11T11:18:07.567Z,38.50
2022-08-11T11:20:43.687Z,38.70
2022-08-11T11:23:21.156Z,38.90
2022-08-11T11:26:29.503Z,39.00
2022-08-11T11:29:38.937Z,39.20
2022-08-11T11:32:25.677Z,39.50
2022-08-11T11:35:14.865Z,39.50
2022-08-11T11:37:58.510Z,39.70
2022-08-11T11:40:34.945Z,39.80
2022-08-11T11:43:03.760Z,39.70
2022-08-11T11:45:32.669Z,39.50
2022-08-11T11:48:02.247Z,39.50
2022-08-11T11:50:33.221Z,39.70
2022-08-11T11:53:03.011Z,39.60
2022-08-11T11:55:31.974Z,39.20
2022-08-11T11:58:22.282Z,38.70
2022-08-11T12:01:09.819Z,38.50
2022-08-11T12:03:39.129Z,38.30
2022-08-11T12:06:09.148Z,38.30
2022-08-11T12:08:38.952Z,38.50
2022-08-11T12:11:27.604Z,38.90
2022-08-11T12:13:59.832Z,39.30
2022-08-11T12:16:34.896Z,39.50
2022-08-11T12:19:07.740Z,39.80
2022-08-11T12:21:37.651Z,40.00
2022-08-11T12:24:30.191Z,40.10
2022-08-11T12:27:18.151Z,40.20
2022-08-11T12:29:54.992Z,40.20
2022-08-11T12:32:30.280Z,40.20
2022-08-11T12:34:59.063Z,40.10
2022-08-11T12:37:31.922Z,40.10
2022-08-11T12:40:43.029Z,40.00
2022-08-11T12:43:39.051Z,39.90
2022-08-11T12:46:11.522Z,39.50
2022-08-11T12:49:04.292Z,39.00
2022-08-11T12:52:12.201Z,38.60
2022-08-11T12:54:57.787Z,38.20
2022-08-11T12:57:50.541Z,37.70
2022-08-11T13:00:38.000Z,37.40
2022-08-11T13:03:27.012Z,37.20
2022-08-11T13:05:57.276Z,37.00
2022-08-11T13:08:27.844Z,36.70
2022-08-11T13:11:16.007Z,36.50
2022-08-11T13:13:55.785Z,36.30
2022-08-11T13:16:27.374Z,36.00
2022-08-11T13:18:58.789Z,35.80
2022-08-11T13:21:28.454Z,35.60
2022-08-11T13:24:00.349Z,35.50
2022-08-11T13:26:43.164Z,35.30
2022-08-11T13:29:19.824Z,35.20
2022-08-11T13:31:48.815Z,35.10
2022-08-11T13:34:20.499Z,35.00
2022-08-11T13:36:52.230Z,34.90
2022-08-11T13:39:24.236Z,34.90
2022-08-11T13:41:55.151Z,34.80
2022-08-11T13:44:27.093Z,34.70
2022-08-11T13:46:58.654Z,34.60
2022-08-11T13:49:29.223Z,34.60
2022-08-11T13:51:59.624Z,34.50
2022-08-11T13:54:33.129Z,34.40
2022-08-11T13:57:08.295Z,34.30
2022-08-11T13:59:51.970Z,34.20
2022-08-11T14:02:30.465Z,34.20
2022-08-11T14:05:07.198Z,34.20
2022-08-11T14:07:38.082Z,34.10
2022-08-11T14:10:08.999Z,34.00
2022-08-11T14:12:56.437Z,33.90
2022-08-11T14:15:28.351Z,33.90
2022-08-11T14:18:01.683Z,33.80
2022-08-11T14:20:53.928Z,33.80
2022-08-11T14:23:27.514Z,33.80
2022-08-11T14:26:11.215Z,33.70
2022-08-11T14:28:44.745Z,33.70
2022-08-11T14:31:15.740Z,33.70
2022-08-11T14:34:01.144Z,33.60
2022-08-11T14:36:35.076Z,33.60
2022-08-11T14:39:06.834Z,33.50
2022-08-11T14:42:11.894Z,33.50
2022-08-11T14:45:02.985Z,33.50
2022-08-11T14:47:34.752Z,33.50
2022-08-11T14:50:09.724Z,33.30
2022-08-11T14:52:46.836Z,33.30
2022-08-11T14:55:33.456Z,33.30
2022-08-11T14:58:03.410Z,33.30
2022-08-11T15:00:34.178Z,33.20
2022-08-11T15:03:12.920Z,33.20
2022-08-11T15:05:55.804Z,33.20
2022-08-11T15:08:47.712Z,33.20
2022-08-11T15:11:35.329Z,33.20
2022-08-11T15:14:06.009Z,33.10
2022-08-11T15:16:51.682Z,33.10
2022-08-11T15:19:22.039Z,33.10
2022-08-11T15:22:08.039Z,33.00
2022-08-11T15:24:38.466Z,33.00
2022-08-11T15:27:29.927Z,33.00
2022-08-11T15:30:32.637Z,32.90
2022-08-11T15:33:23.386Z,32.90
2022-08-11T15:36:10.878Z,32.90
2022-08-11T15:38:43.881Z,32.90
2022-08-11T15:41:35.894Z,32.80
2022-08-11T15:44:51.200Z,32.80
2022-08-11T15:47:19.040Z,32.80
2022-08-11T15:50:10.835Z,32.70
2022-08-11T15:52:47.433Z,32.70
2022-08-11T15:55:16.934Z,32.60
2022-08-11T15:58:08.690Z,32.50
2022-08-11T16:00:58.788Z,32.50
2022-08-11T16:04:07.586Z,32.40
2022-08-11T16:06:43.960Z,32.40
2022-08-11T16:09:19.755Z,32.40
2022-08-11T16:11:49.412Z,32.30
2022-08-11T16:14:38.101Z,32.30
2022-08-11T16:17:08.197Z,32.30
2022-08-11T16:19:37.988Z,32.30
2022-08-11T16:22:09.631Z,32.20
2022-08-11T16:27:05.338Z,32.20
2022-08-11T16:27:34.089Z,32.20
2022-08-11T16:30:05.849Z,32.20
2022-08-11T16:32:35.679Z,32.10
2022-08-11T16:35:23.621Z,32.10
2022-08-11T16:38:12.107Z,32.10
2022-08-11T16:40:42.821Z,32.00
2022-08-11T16:43:33.291Z,32.00
2022-08-11T16:46:22.780Z,32.00
2022-08-11T16:48:53.448Z,32.00
2022-08-11T16:51:22.452Z,32.00
2022-08-11T16:54:04.066Z,32.10
2022-08-11T16:56:37.263Z,32.00
2022-08-11T16:59:15.969Z,32.00
2022-08-11T17:01:50.204Z,32.10
2022-08-11T17:04:43.022Z,32.10
2022-08-11T17:07:50.105Z,32.10
2022-08-11T17:10:52.678Z,32.00
2022-08-11T17:13:27.041Z,31.90
2022-08-11T17:16:08.432Z,31.80
2022-08-11T17:18:44.694Z,31.70
2022-08-11T17:21:19.779Z,31.70
2022-08-11T17:23:51.969Z,31.50
2022-08-11T17:26:28.102Z,31.40
2022-08-11T17:29:00.625Z,31.40
2022-08-11T17:31:47.724Z,31.40
2022-08-11T17:34:35.121Z,31.30
2022-08-11T17:37:05.251Z,31.20
2022-08-11T17:39:35.759Z,31.10
2022-08-11T17:42:21.547Z,31.10
2022-08-11T17:45:08.384Z,30.90
2022-08-11T17:47:55.148Z,30.80
2022-08-11T17:50:25.402Z,30.70
2022-08-11T17:53:12.010Z,30.60
2022-08-11T17:55:59.445Z,30.60
2022-08-11T17:58:45.894Z,30.50
2022-08-11T18:01:15.664Z,30.40
2022-08-11T18:03:54.591Z,30.30
2022-08-11T18:06:33.942Z,30.20
2022-08-11T18:09:23.970Z,30.20
2022-08-11T18:12:13.106Z,30.10
2022-08-11T18:15:02.189Z,30.10
2022-08-11T18:17:47.543Z,29.90
2022-08-11T18:20:33.553Z,29.90
2022-08-11T18:23:41.911Z,29.80
2022-08-11T18:26:31.388Z,29.80
2022-08-11T18:29:18.870Z,29.70
2022-08-11T18:32:08.351Z,29.70
2022-08-11T18:35:00.466Z,29.60
2022-08-11T18:37:49.429Z,29.50
2022-08-11T18:40:40.850Z,29.50
2022-08-11T18:43:30.249Z,29.40
2022-08-11T18:46:22.705Z,29.40
2022-08-11T18:49:15.769Z,29.40
2022-08-11T18:52:06.324Z,29.30
2022-08-11T18:54:55.242Z,29.30
2022-08-11T18:57:50.084Z,29.20
2022-08-11T19:00:41.044Z,29.20
2022-08-11T19:03:28.545Z,29.10
2022-08-11T19:06:38.271Z,29.10
2022-08-11T19:09:27.976Z,29.00
2022-08-11T19:12:14.521Z,29.00
2022-08-11T19:15:03.435Z,28.90
2022-08-11T19:17:50.951Z,28.90
2022-08-11T19:20:38.950Z,28.80
2022-08-11T19:23:26.625Z,28.70
2022-08-11T19:26:12.634Z,28.70
2022-08-11T19:29:00.504Z,28.60
2022-08-11T19:31:48.885Z,28.60
2022-08-11T19:34:37.156Z,28.50
2022-08-11T19:37:25.214Z,28.40
2022-08-11T19:40:12.479Z,28.40
2022-08-11T19:43:00.102Z,28.30
2022-08-11T19:45:45.924Z,28.20
2022-08-11T19:48:40.642Z,28.20
2022-08-11T19:51:29.169Z,28.10
2022-08-11T19:54:16.484Z,28.00
2022-08-11T19:57:04.035Z,28.00
2022-08-11T19:59:51.439Z,27.90
2022-08-11T20:02:37.501Z,27.80
2022-08-11T20:05:25.852Z,27.70
2022-08-11T20:08:13.721Z,27.70
2022-08-11T20:11:01.169Z,27.60
2022-08-11T20:13:49.998Z,27.60
2022-08-11T20:16:39.259Z,27.50
2022-08-11T20:19:55.514Z,27.50
2022-08-11T20:22:35.955Z,27.40
